createdAt,value
2018-01-21T00:01:04.758Z,44.80
2018-01-21T00:03:33.781Z,26.00
2018-01-21T00:06:01.997Z,34.37
2018-01-21T00:08:30.080Z,21.90
2018-01-21T00:10:57.794Z,17.87
2018-01-21T00:13:25.409Z,14.60
2018-01-21T00:15:53.072Z,13.60
2018-01-21T00:18:21.407Z,13.23
2018-01-21T00:20:49.884Z,26.50
2018-01-21T00:23:17.532Z,14.93
2018-01-21T00:25:46.108Z,20.87
2018-01-21T00:28:14.683Z,14.27
2018-01-21T00:30:42.334Z,14.40
2018-01-21T00:33:10.701Z,16.27
2018-01-21T00:35:39.212Z,15.90
2018-01-21T00:38:07.611Z,13.73
2018-01-21T00:40:35.403Z,14.27
2018-01-21T00:43:04.011Z,15.23
2018-01-21T00:45:32.569Z,16.60
2018-01-21T00:48:00.190Z,14.40
2018-01-21T00:50:27.866Z,14.10
2018-01-21T00:52:55.440Z,28.97
2018-01-21T00:55:24.015Z,15.27
2018-01-21T00:57:51.582Z,18.77
2018-01-21T01:00:19.976Z,36.63
2018-01-21T01:02:47.631Z,14.37
2018-01-21T01:05:15.232Z,12.90
2018-01-21T01:07:42.814Z,14.97
2018-01-21T01:10:10.436Z,11.47
2018-01-21T01:12:38.798Z,11.77
2018-01-21T01:15:06.422Z,7.90
2018-01-21T01:17:34.066Z,9.13
2018-01-21T01:20:01.826Z,9.07
2018-01-21T01:22:29.452Z,9.50
2018-01-21T01:24:57.201Z,7.13
2018-01-21T01:27:24.870Z,7.57
2018-01-21T01:29:52.520Z,7.23
2018-01-21T01:32:25.841Z,6.30
2018-01-21T01:34:54.265Z,6.53
2018-01-21T01:37:21.950Z,5.50
2018-01-21T01:39:49.639Z,5.13
2018-01-21T01:42:17.277Z,5.90
2018-01-21T01:44:44.838Z,5.67
2018-01-21T01:47:12.419Z,5.93
2018-01-21T01:49:39.987Z,6.13
2018-01-21T01:52:08.196Z,5.53
2018-01-21T01:54:35.829Z,6.53
2018-01-21T01:57:03.580Z,6.03
2018-01-21T01:59:31.156Z,6.33
2018-01-21T02:01:58.727Z,5.60
2018-01-21T02:04:26.286Z,5.37
2018-01-21T02:06:53.841Z,5.87
2018-01-21T02:09:21.480Z,5.80
2018-01-21T02:11:49.091Z,5.30
2018-01-21T02:14:16.702Z,5.93
2018-01-21T02:16:44.356Z,5.27
2018-01-21T02:19:11.935Z,6.60
2018-01-21T02:21:39.572Z,7.03
2018-01-21T02:24:07.590Z,7.13
2018-01-21T02:26:36.027Z,6.50
2018-01-21T02:29:03.615Z,6.50
2018-01-21T02:31:31.186Z,6.07
2018-01-21T02:33:58.798Z,6.90
2018-01-21T02:36:26.364Z,6.00
2018-01-21T02:38:53.956Z,6.30
2018-01-21T02:41:21.597Z,6.30
2018-01-21T02:43:49.149Z,5.60
2018-01-21T02:46:17.650Z,5.27
2018-01-21T02:48:45.235Z,4.87
2018-01-21T02:51:12.798Z,4.67
2018-01-21T02:53:40.378Z,5.03
2018-01-21T02:56:08.313Z,4.77
2018-01-21T02:58:36.060Z,4.07
2018-01-21T03:01:03.815Z,4.27
2018-01-21T03:03:32.152Z,4.47
2018-01-21T03:05:59.753Z,5.00
2018-01-21T03:08:27.305Z,4.70
2018-01-21T03:10:54.862Z,4.27
2018-01-21T03:13:22.430Z,4.37
2018-01-21T03:15:49.983Z,4.87
2018-01-21T03:18:17.593Z,5.40
2018-01-21T03:20:45.140Z,5.13
2018-01-21T03:23:12.699Z,5.40
2018-01-21T03:25:41.015Z,6.30
2018-01-21T03:28:08.898Z,5.77
2018-01-21T03:30:37.622Z,6.33
2018-01-21T03:33:05.214Z,5.87
2018-01-21T03:35:33.022Z,5.60
2018-01-21T03:38:00.618Z,6.33
2018-01-21T03:40:28.249Z,6.10
2018-01-21T03:42:56.573Z,5.73
2018-01-21T03:45:24.136Z,6.60
2018-01-21T03:47:52.467Z,6.03
2018-01-21T03:50:20.028Z,6.97
2018-01-21T03:52:48.396Z,6.67
2018-01-21T03:55:16.767Z,6.60
2018-01-21T03:57:44.318Z,7.27
2018-01-21T04:00:12.661Z,6.07
2018-01-21T04:02:40.219Z,7.07
2018-01-21T04:05:07.795Z,7.30
2018-01-21T04:07:35.347Z,7.93
2018-01-21T04:10:02.909Z,7.07
2018-01-21T04:12:30.756Z,6.43
2018-01-21T04:14:58.933Z,6.33
2018-01-21T04:18:48.161Z,7.60
2018-01-21T04:21:16.138Z,6.83
2018-01-21T04:23:43.775Z,6.23
2018-01-21T04:26:11.334Z,7.07
2018-01-21T04:28:38.930Z,7.20
2018-01-21T04:31:06.485Z,5.87
2018-01-21T04:33:34.064Z,6.27
2018-01-21T04:36:01.643Z,6.67
2018-01-21T04:38:29.225Z,7.07
2018-01-21T04:40:56.790Z,7.00
2018-01-21T04:43:24.365Z,6.33
2018-01-21T04:45:51.921Z,6.40
2018-01-21T04:48:19.500Z,5.90
2018-01-21T04:50:47.829Z,6.53
2018-01-21T04:53:16.282Z,6.23
2018-01-21T04:55:43.843Z,6.10
2018-01-21T04:58:11.421Z,5.40
2018-01-21T05:00:38.991Z,4.70
2018-01-21T05:03:06.558Z,4.57
2018-01-21T05:05:34.122Z,4.97
2018-01-21T05:08:02.461Z,5.23
2018-01-21T05:10:31.006Z,5.13
2018-01-21T05:12:58.577Z,6.00
2018-01-21T05:15:26.136Z,5.77
2018-01-21T05:17:53.694Z,6.37
2018-01-21T05:20:22.013Z,6.80
2018-01-21T05:22:49.570Z,7.00
2018-01-21T05:25:17.899Z,7.60
2018-01-21T05:27:45.512Z,7.30
2018-01-21T05:30:13.071Z,6.83
2018-01-21T05:32:40.639Z,8.40
2018-01-21T05:35:08.966Z,8.50
2018-01-21T05:37:36.551Z,8.37
2018-01-21T05:40:04.102Z,9.13
2018-01-21T05:42:31.658Z,9.27
2018-01-21T05:44:59.214Z,9.07
2018-01-21T05:47:26.772Z,8.20
2018-01-21T05:49:54.375Z,8.90
2018-01-21T05:52:21.949Z,9.23
2018-01-21T05:54:49.497Z,7.70
2018-01-21T05:57:17.910Z,7.73
2018-01-21T05:59:46.239Z,8.03
2018-01-21T06:02:13.806Z,7.73
2018-01-21T06:04:42.150Z,6.97
2018-01-21T06:07:09.712Z,7.60
2018-01-21T06:09:37.258Z,7.10
2018-01-21T06:12:04.812Z,7.83
2018-01-21T06:14:32.393Z,6.87
2018-01-21T06:17:00.499Z,6.27
2018-01-21T06:19:28.058Z,7.20
2018-01-21T06:21:55.619Z,7.10
2018-01-21T06:24:23.174Z,6.67
2018-01-21T06:26:50.740Z,7.27
2018-01-21T06:29:18.333Z,6.80
2018-01-21T06:31:45.894Z,7.03
2018-01-21T06:34:13.450Z,7.43
2018-01-21T06:36:41.004Z,6.47
2018-01-21T06:39:08.569Z,7.30
2018-01-21T06:41:36.125Z,7.40
2018-01-21T06:44:03.693Z,7.07
2018-01-21T06:46:31.267Z,7.63
2018-01-21T06:48:59.710Z,7.07
2018-01-21T06:51:27.266Z,7.70
2018-01-21T06:53:54.818Z,6.80
2018-01-21T06:56:23.149Z,7.53
2018-01-21T06:58:50.702Z,6.73
2018-01-21T07:01:19.026Z,6.70
2018-01-21T07:03:46.631Z,6.13
2018-01-21T07:06:14.200Z,5.90
2018-01-21T07:08:41.785Z,6.43
2018-01-21T07:11:09.350Z,6.93
2018-01-21T07:13:37.707Z,7.67
2018-01-21T07:16:05.277Z,7.13
2018-01-21T07:18:32.872Z,6.80
2018-01-21T07:21:00.526Z,7.50
2018-01-21T07:23:28.117Z,6.63
2018-01-21T07:25:55.730Z,7.50
2018-01-21T07:28:23.295Z,7.73
2018-01-21T07:30:50.887Z,7.20
2018-01-21T07:33:18.545Z,7.93
2018-01-21T07:35:46.181Z,7.67
2018-01-21T07:38:13.749Z,7.10
2018-01-21T07:40:41.363Z,8.27
2018-01-21T07:43:08.938Z,7.37
2018-01-21T07:45:36.514Z,7.47
2018-01-21T07:48:04.102Z,6.50
2018-01-21T07:50:31.727Z,6.53
2018-01-21T07:53:00.232Z,8.17
2018-01-21T07:55:28.643Z,8.53
2018-01-21T07:57:56.976Z,7.77
2018-01-21T08:00:24.551Z,7.10
2018-01-21T08:02:52.113Z,6.13
2018-01-21T08:05:19.686Z,7.73
2018-01-21T08:07:47.261Z,7.60
2018-01-21T08:10:14.841Z,6.43
2018-01-21T08:12:42.477Z,7.00
2018-01-21T08:15:10.092Z,6.60
2018-01-21T08:17:37.701Z,6.10
2018-01-21T08:20:05.255Z,6.47
2018-01-21T08:22:32.818Z,6.50
2018-01-21T08:25:00.874Z,6.00
2018-01-21T08:27:29.287Z,7.13
2018-01-21T08:29:57.752Z,5.77
2018-01-21T08:32:25.387Z,5.97
2018-01-21T08:34:59.482Z,5.77
2018-01-21T08:37:32.691Z,5.83
2018-01-21T08:40:06.038Z,5.90
2018-01-21T08:42:34.162Z,6.20
2018-01-21T08:45:01.768Z,5.67
2018-01-21T08:47:29.371Z,5.17
2018-01-21T08:49:57.064Z,5.53
2018-01-21T08:52:24.614Z,5.43
2018-01-21T08:54:52.245Z,5.63
2018-01-21T08:57:19.824Z,5.27
2018-01-21T08:59:47.422Z,5.07
2018-01-21T09:02:15.001Z,5.90
2018-01-21T09:04:42.604Z,4.73
2018-01-21T09:07:10.952Z,5.10
2018-01-21T09:09:39.045Z,5.07
2018-01-21T09:12:07.371Z,5.33
2018-01-21T09:14:42.345Z,4.83
2018-01-21T09:17:09.924Z,4.73
2018-01-21T09:19:37.538Z,4.37
2018-01-21T09:22:05.131Z,3.67
2018-01-21T09:24:32.756Z,3.70
2018-01-21T09:27:00.409Z,4.17
2018-01-21T09:29:28.072Z,4.00
2018-01-21T09:31:55.674Z,4.23
2018-01-21T09:34:24.062Z,4.20
2018-01-21T09:36:51.647Z,4.57
2018-01-21T09:39:19.238Z,3.90
2018-01-21T09:41:46.824Z,3.67
2018-01-21T09:44:14.415Z,4.30
2018-01-21T09:46:42.013Z,4.47
2018-01-21T09:49:10.590Z,4.00
2018-01-21T09:51:38.162Z,4.20
2018-01-21T09:54:05.848Z,3.90
2018-01-21T09:56:33.470Z,3.63
2018-01-21T09:59:01.052Z,4.20
2018-01-21T10:01:28.676Z,3.70
2018-01-21T10:03:56.259Z,3.57
2018-01-21T10:06:23.836Z,3.60
2018-01-21T10:08:51.431Z,3.73
2018-01-21T10:11:18.998Z,3.60
2018-01-21T10:13:47.346Z,4.20
2018-01-21T10:16:14.923Z,3.67
2018-01-21T10:18:42.521Z,3.80
2018-01-21T10:21:10.120Z,3.57
2018-01-21T10:23:37.694Z,3.30
2018-01-21T10:26:05.293Z,3.93
2018-01-21T10:28:32.927Z,3.63
2018-01-21T10:31:00.572Z,3.63
2018-01-21T10:33:28.175Z,3.90
2018-01-21T10:35:56.740Z,3.60
2018-01-21T10:38:24.302Z,3.63
2018-01-21T10:40:51.892Z,4.07
2018-01-21T10:43:19.492Z,4.33
2018-01-21T10:45:47.128Z,4.50
2018-01-21T10:48:15.508Z,3.60
2018-01-21T10:50:43.094Z,3.90
2018-01-21T10:53:10.772Z,3.60
2018-01-21T10:55:38.381Z,4.90
2018-01-21T10:58:06.027Z,5.37
2018-01-21T11:00:39.375Z,5.67
2018-01-21T11:03:06.957Z,5.57
2018-01-21T11:05:34.556Z,5.63
2018-01-21T11:08:02.468Z,5.80
2018-01-21T11:10:30.152Z,5.17
2018-01-21T11:12:58.542Z,4.87
2018-01-21T11:15:27.779Z,4.43
2018-01-21T11:17:55.440Z,4.07
2018-01-21T11:20:37.579Z,4.67
2018-01-21T11:23:20.690Z,4.70
2018-01-21T11:25:50.439Z,5.13
2018-01-21T11:28:18.081Z,4.83
2018-01-21T11:30:45.700Z,4.97
2018-01-21T11:33:13.291Z,4.97
2018-01-21T11:35:41.566Z,5.30
2018-01-21T11:38:09.732Z,5.33
2018-01-21T11:40:37.342Z,5.03
2018-01-21T11:43:04.931Z,5.40
2018-01-21T11:45:32.511Z,5.60
2018-01-21T11:48:00.835Z,4.83
2018-01-21T11:50:28.445Z,5.30
2018-01-21T11:52:56.120Z,4.63
2018-01-21T11:55:24.501Z,4.40
2018-01-21T11:57:52.099Z,4.13
2018-01-21T12:00:19.682Z,3.20
2018-01-21T12:02:48.152Z,3.30
2018-01-21T12:05:16.367Z,3.67
2018-01-21T12:07:43.969Z,3.63
2018-01-21T12:10:11.616Z,3.97
2018-01-21T12:12:39.246Z,4.20
2018-01-21T12:15:06.853Z,4.20
2018-01-21T12:17:35.250Z,12.37
2018-01-21T12:20:03.191Z,4.13
2018-01-21T12:22:31.024Z,3.80
2018-01-21T12:24:58.866Z,4.37
2018-01-21T12:27:26.592Z,4.37
2018-01-21T12:29:55.287Z,4.43
2018-01-21T12:32:23.204Z,4.83
2018-01-21T12:34:51.189Z,4.53
2018-01-21T12:37:19.047Z,4.30
2018-01-21T12:39:46.780Z,5.10
2018-01-21T12:42:14.788Z,5.30
2018-01-21T12:44:43.264Z,5.03
2018-01-21T12:47:11.201Z,4.17
2018-01-21T12:49:40.505Z,3.90
2018-01-21T12:52:08.241Z,3.43
2018-01-21T12:54:36.252Z,3.60
2018-01-21T12:57:04.036Z,3.47
2018-01-21T12:59:34.766Z,3.40
2018-01-21T13:02:03.658Z,4.07
2018-01-21T13:04:32.081Z,3.37
2018-01-21T13:07:01.612Z,3.23
2018-01-21T13:09:31.718Z,3.80
2018-01-21T13:11:59.673Z,3.73
2018-01-21T13:14:28.243Z,3.90
2018-01-21T13:16:57.038Z,4.47
2018-01-21T13:19:24.704Z,4.47
2018-01-21T13:21:52.591Z,4.23
2018-01-21T13:24:20.902Z,3.83
2018-01-21T13:26:48.864Z,4.03
2018-01-21T13:29:16.786Z,4.07
2018-01-21T13:31:44.709Z,3.83
2018-01-21T13:34:12.697Z,4.10
2018-01-21T13:36:40.607Z,3.93
2018-01-21T13:39:09.344Z,4.20
2018-01-21T13:41:38.431Z,4.10
2018-01-21T13:44:06.126Z,4.00
2018-01-21T13:46:33.940Z,4.30
2018-01-21T13:49:02.292Z,4.50
2018-01-21T13:51:29.882Z,4.93
2018-01-21T13:53:57.576Z,5.03
2018-01-21T13:56:25.155Z,5.20
2018-01-21T13:58:52.845Z,5.23
2018-01-21T14:01:22.309Z,5.70
2018-01-21T14:03:50.913Z,6.50
2018-01-21T14:06:19.309Z,6.03
2018-01-21T14:08:47.685Z,5.90
2018-01-21T14:11:15.264Z,5.50
2018-01-21T14:13:42.901Z,6.07
2018-01-21T14:16:11.239Z,7.20
2018-01-21T14:18:38.860Z,6.13
2018-01-21T14:21:06.433Z,5.40
2018-01-21T14:23:34.109Z,6.37
2018-01-21T14:26:01.721Z,6.13
2018-01-21T14:28:31.653Z,5.90
2018-01-21T14:30:59.255Z,5.80
2018-01-21T14:33:27.629Z,5.40
2018-01-21T14:35:55.231Z,5.67
2018-01-21T14:38:23.652Z,6.03
2018-01-21T14:40:53.084Z,5.30
2018-01-21T14:43:21.451Z,4.93
2018-01-21T14:45:49.148Z,5.60
2018-01-21T14:48:16.735Z,6.03
2018-01-21T14:50:44.331Z,5.70
2018-01-21T14:53:11.960Z,4.87
2018-01-21T14:55:39.594Z,10.30
2018-01-21T14:58:07.963Z,64.47
2018-01-21T15:00:35.535Z,22.30
2018-01-21T15:03:03.353Z,10.00
2018-01-21T15:05:31.112Z,7.80
2018-01-21T15:07:58.828Z,6.33
2018-01-21T15:10:26.562Z,5.83
2018-01-21T15:12:54.288Z,5.53
2018-01-21T15:15:22.760Z,5.60
2018-01-21T15:17:50.394Z,6.17
2018-01-21T15:20:17.968Z,7.40
2018-01-21T15:22:45.620Z,6.80
2018-01-21T15:25:13.295Z,7.60
2018-01-21T15:27:41.604Z,7.53
2018-01-21T15:30:09.352Z,8.20
2018-01-21T15:32:36.967Z,8.27
2018-01-21T15:35:06.190Z,7.30
2018-01-21T15:37:34.605Z,7.50
2018-01-21T15:40:02.781Z,7.40
2018-01-21T15:42:30.435Z,7.60
2018-01-21T15:44:58.092Z,8.70
2018-01-21T15:47:25.727Z,8.43
2018-01-21T15:49:53.650Z,8.53
2018-01-21T15:52:21.875Z,8.17
2018-01-21T15:54:49.648Z,7.73
2018-01-21T15:57:18.168Z,8.03
2018-01-21T15:59:45.832Z,7.97
2018-01-21T16:02:13.631Z,8.50
2018-01-21T16:04:41.217Z,8.13
2018-01-21T16:07:08.850Z,8.60
2018-01-21T16:09:37.278Z,7.63
2018-01-21T16:12:04.895Z,7.60
2018-01-21T16:14:32.467Z,8.60
2018-01-21T16:17:00.075Z,10.10
2018-01-21T16:19:27.638Z,22.20
2018-01-21T16:21:55.263Z,31.70
2018-01-21T16:24:23.058Z,12.97
2018-01-21T16:26:51.643Z,10.33
2018-01-21T16:29:19.225Z,8.53
2018-01-21T16:31:46.819Z,10.07
2018-01-21T16:34:16.235Z,9.90
2018-01-21T16:36:43.816Z,9.33
2018-01-21T16:39:11.375Z,8.80
2018-01-21T16:41:38.947Z,10.10
2018-01-21T16:44:06.531Z,8.27
2018-01-21T16:46:34.147Z,9.03
2018-01-21T16:49:02.606Z,9.97
2018-01-21T16:51:30.190Z,9.00
2018-01-21T16:53:57.751Z,8.87
2018-01-21T16:56:25.340Z,9.30
2018-01-21T16:58:52.980Z,9.47
2018-01-21T17:01:21.345Z,8.70
2018-01-21T17:03:48.898Z,8.33
2018-01-21T17:06:17.777Z,8.23
2018-01-21T17:08:46.133Z,8.10
2018-01-21T17:11:13.699Z,9.20
2018-01-21T17:13:41.300Z,10.40
2018-01-21T17:16:08.891Z,11.00
2018-01-21T17:21:27.895Z,8.77
2018-01-21T17:23:55.458Z,8.47
2018-01-21T17:26:23.782Z,9.30
2018-01-21T17:28:51.385Z,9.17
2018-01-21T17:31:19.739Z,9.23
2018-01-21T17:33:47.325Z,9.70
2018-01-21T17:36:14.911Z,9.10
2018-01-21T17:38:43.288Z,9.20
2018-01-21T17:41:10.846Z,9.50
2018-01-21T17:43:38.415Z,29.07
2018-01-21T17:46:06.017Z,47.30
2018-01-21T17:48:33.587Z,82.13
2018-01-21T17:51:01.155Z,85.87
2018-01-21T17:53:28.748Z,72.03
2018-01-21T17:55:56.366Z,26.07
2018-01-21T17:58:23.928Z,12.80
2018-01-21T18:00:51.496Z,11.53
2018-01-21T18:03:19.083Z,10.60
2018-01-21T18:05:46.655Z,11.47
2018-01-21T18:08:14.993Z,11.43
2018-01-21T18:10:42.733Z,11.03
2018-01-21T18:13:10.303Z,11.10
2018-01-21T18:15:39.384Z,10.70
2018-01-21T18:18:06.934Z,10.97
2018-01-21T18:20:35.258Z,10.37
2018-01-21T18:23:02.809Z,10.70
2018-01-21T18:25:31.140Z,11.30
2018-01-21T18:27:58.718Z,11.00
2018-01-21T18:30:26.271Z,11.37
2018-01-21T18:32:53.834Z,12.33
2018-01-21T18:35:21.400Z,11.70
2018-01-21T18:37:48.998Z,11.57
2018-01-21T18:40:16.606Z,12.00
2018-01-21T18:42:44.171Z,10.33
2018-01-21T18:45:12.508Z,10.90
2018-01-21T18:47:40.853Z,10.13
2018-01-21T18:50:08.429Z,10.53
2018-01-21T18:52:35.987Z,11.17
2018-01-21T18:55:04.330Z,10.80
2018-01-21T18:57:31.899Z,11.13
2018-01-21T18:59:59.460Z,10.83
2018-01-21T19:02:27.819Z,11.90
2018-01-21T19:04:55.391Z,11.77
2018-01-21T19:07:22.977Z,11.93
2018-01-21T19:09:50.544Z,11.70
2018-01-21T19:12:18.104Z,10.60
2018-01-21T19:14:45.671Z,11.03
2018-01-21T19:17:13.242Z,11.23
2018-01-21T19:19:40.813Z,11.33
2018-01-21T19:22:09.148Z,11.60
2018-01-21T19:24:37.475Z,15.83
2018-01-21T19:27:05.039Z,14.13
2018-01-21T19:29:33.381Z,11.40
2018-01-21T19:32:00.977Z,17.33
2018-01-21T19:34:28.781Z,28.53
2018-01-21T19:36:57.155Z,38.30
2018-01-21T19:39:30.618Z,57.10
2018-01-21T19:45:08.941Z,34.47
2018-01-21T19:47:36.562Z,49.10
2018-01-21T19:50:04.209Z,41.10
2018-01-21T19:52:32.804Z,49.80
2018-01-21T19:55:01.146Z,36.50
2018-01-21T19:57:28.738Z,26.23
2018-01-21T19:59:56.322Z,20.67
2018-01-21T20:02:23.982Z,15.50
2018-01-21T20:04:52.755Z,14.27
2018-01-21T20:07:21.133Z,13.27
2018-01-21T20:09:48.788Z,12.33
2018-01-21T20:12:16.392Z,12.97
2018-01-21T20:14:44.023Z,13.27
2018-01-21T20:17:12.376Z,13.93
2018-01-21T20:19:39.931Z,15.40
2018-01-21T20:22:07.506Z,13.00
2018-01-21T20:24:35.088Z,13.77
2018-01-21T20:27:02.656Z,12.43
2018-01-21T20:29:30.995Z,19.77
2018-01-21T20:31:58.609Z,14.03
2018-01-21T20:34:26.170Z,14.57
2018-01-21T20:36:53.794Z,13.07
2018-01-21T20:39:21.399Z,14.83
2018-01-21T20:41:49.752Z,13.37
2018-01-21T20:44:17.948Z,14.17
2018-01-21T20:46:46.411Z,13.93
2018-01-21T20:49:14.740Z,13.47
2018-01-21T20:51:48.016Z,13.97
2018-01-21T20:54:21.208Z,13.97
2018-01-21T20:56:48.949Z,13.37
2018-01-21T20:59:16.567Z,14.00
2018-01-21T21:01:44.309Z,12.87
2018-01-21T21:04:12.005Z,13.73
2018-01-21T21:06:39.586Z,13.03
2018-01-21T21:09:07.935Z,13.73
2018-01-21T21:11:35.602Z,14.13
2018-01-21T21:14:03.255Z,15.00
2018-01-21T21:16:31.593Z,22.50
2018-01-21T21:18:59.202Z,16.27
2018-01-21T21:21:26.835Z,20.43
2018-01-21T21:23:55.191Z,15.13
2018-01-21T21:26:35.206Z,20.73
2018-01-21T21:29:03.287Z,14.27
2018-01-21T21:31:30.913Z,13.73
2018-01-21T21:33:58.489Z,13.93
2018-01-21T21:36:27.339Z,11.97
2018-01-21T21:38:56.569Z,13.03
2018-01-21T21:41:24.764Z,12.10
2018-01-21T21:43:53.041Z,12.53
2018-01-21T21:46:20.650Z,13.60
2018-01-21T21:48:48.274Z,12.40
2018-01-21T21:51:15.842Z,12.70
2018-01-21T21:53:43.680Z,11.93
2018-01-21T21:56:11.554Z,11.00
2018-01-21T21:58:39.929Z,11.90
2018-01-21T22:01:07.506Z,10.50
2018-01-21T22:03:35.118Z,11.07
2018-01-21T22:06:03.464Z,11.37
2018-01-21T22:08:31.035Z,10.60
2018-01-21T22:10:58.601Z,12.43
2018-01-21T22:13:27.402Z,10.87
2018-01-21T22:15:55.632Z,10.90
2018-01-21T22:18:24.528Z,11.40
2018-01-21T22:20:52.528Z,11.67
2018-01-21T22:23:20.145Z,10.90
2018-01-21T22:25:51.503Z,10.20
2018-01-21T22:28:19.189Z,11.07
2018-01-21T22:30:46.762Z,10.80
2018-01-21T22:33:14.316Z,10.33
2018-01-21T22:35:42.698Z,16.50
2018-01-21T22:38:11.418Z,10.40
2018-01-21T22:40:39.493Z,17.93
2018-01-21T22:43:07.939Z,12.47
2018-01-21T22:45:36.273Z,16.57
2018-01-21T22:48:03.841Z,13.53
2018-01-21T22:50:31.410Z,9.57
2018-01-21T22:52:59.823Z,9.20
2018-01-21T22:55:27.477Z,10.83
2018-01-21T22:57:55.043Z,9.70
2018-01-21T23:00:22.642Z,8.90
2018-01-21T23:02:50.203Z,9.70
2018-01-21T23:05:17.760Z,9.40
2018-01-21T23:07:45.329Z,9.73
2018-01-21T23:10:12.893Z,9.57
2018-01-21T23:12:41.234Z,10.33
2018-01-21T23:15:08.808Z,9.23
2018-01-21T23:17:36.403Z,10.30
2018-01-21T23:20:04.044Z,9.50
2018-01-21T23:22:32.387Z,10.10
2018-01-21T23:24:59.997Z,11.53
2018-01-21T23:27:27.562Z,11.30
2018-01-21T23:29:55.148Z,10.40
2018-01-21T23:32:22.722Z,10.60
2018-01-21T23:34:50.309Z,9.00
2018-01-21T23:37:17.858Z,9.20
2018-01-21T23:39:46.211Z,9.80
2018-01-21T23:42:13.798Z,9.93
2018-01-21T23:44:41.440Z,9.30
2018-01-21T23:47:09.765Z,9.37
2018-01-21T23:49:37.324Z,9.97
2018-01-21T23:52:05.713Z,8.87
2018-01-21T23:54:33.280Z,9.70
2018-01-21T23:57:00.845Z,9.77
2018-01-21T23:59:28.443Z,9.17
